Time;durP1;ratioP1;P1;durP2;ratioP2;P2;SDS_P1;SDS_P2;PMS_P1;PMS_P2;Temp;Humidity;BMP_temperature;BMP_pressure;BME280_temperature;BME280_humidity;BME280_pressure;Samples;Min_cycle;Max_cycle;Signal;HPM_P1;HPM_P2
2022/07/01 00:01:58;;;;;;;1.52;0.82;;;;;;;;;;5031120;28;20056;-63
2022/07/01 00:04:27;;;;;;;0.60;0.60;;;;;;;;;;5046917;28;20049;-63
2022/07/01 00:06:57;;;;;;;0.60;0.60;;;;;;;;;;5030051;28;20587;-63
2022/07/01 00:09:23;;;;;;;0.57;0.57;;;;;;;;;;5031556;28;20051;-64
2022/07/01 00:11:50;;;;;;;0.70;0.55;;;;;;;;;;5031833;28;20049;-63
2022/07/01 00:14:16;;;;;;;0.50;0.50;;;;;;;;;;5031478;28;20127;-63
2022/07/01 00:16:42;;;;;;;0.70;0.55;;;;;;;;;;5031453;28;20049;-64
2022/07/01 00:19:08;;;;;;;1.02;0.60;;;;;;;;;;5031654;28;20049;-63
2022/07/01 00:21:34;;;;;;;0.95;0.90;;;;;;;;;;5029893;28;20061;-63
2022/07/01 00:24:00;;;;;;;0.90;0.55;;;;;;;;;;5031767;28;20053;-64
2022/07/01 00:26:27;;;;;;;1.30;0.60;;;;;;;;;;5031001;28;20045;-63
2022/07/01 00:28:53;;;;;;;0.50;0.50;;;;;;;;;;5031758;28;20057;-64
2022/07/01 00:31:19;;;;;;;1.60;0.68;;;;;;;;;;5030796;28;20501;-64
2022/07/01 00:33:45;;;;;;;0.50;0.50;;;;;;;;;;5031516;28;20053;-64
2022/07/01 00:36:11;;;;;;;1.55;0.70;;;;;;;;;;5029105;28;20057;-64
2022/07/01 00:38:37;;;;;;;1.13;0.50;;;;;;;;;;5031409;28;20561;-64
2022/07/01 00:41:03;;;;;;;1.42;1.25;;;;;;;;;;5032004;28;20126;-63
2022/07/01 00:43:34;;;;;;;0.50;0.50;;;;;;;;;;5030837;28;20068;-63
2022/07/01 00:46:00;;;;;;;0.43;0.40;;;;;;;;;;5031034;28;20052;-64
2022/07/01 00:48:26;;;;;;;0.60;0.60;;;;;;;;;;5030709;28;20053;-64
2022/07/01 00:50:52;;;;;;;0.57;0.57;;;;;;;;;;5048228;28;20052;-64
2022/07/01 00:53:19;;;;;;;0.43;0.43;;;;;;;;;;5050713;28;20045;-63
2022/07/01 00:55:45;;;;;;;1.20;0.57;;;;;;;;;;5039683;28;20046;-64
2022/07/01 00:58:11;;;;;;;0.52;0.52;;;;;;;;;;5030553;28;20045;-64
2022/07/01 01:00:41;;;;;;;1.65;0.70;;;;;;;;;;5030679;28;20045;-64
2022/07/01 01:03:10;;;;;;;2.20;0.77;;;;;;;;;;5030673;28;20045;-60
2022/07/01 01:05:36;;;;;;;0.95;0.50;;;;;;;;;;5047770;28;20130;-63
2022/07/01 01:08:02;;;;;;;0.95;0.60;;;;;;;;;;5050837;28;20102;-64
2022/07/01 01:10:29;;;;;;;0.45;0.45;;;;;;;;;;5049922;28;20813;-63
2022/07/01 01:12:56;;;;;;;0.75;0.55;;;;;;;;;;5049860;28;20519;-63
2022/07/01 01:15:22;;;;;;;0.50;0.50;;;;;;;;;;5049905;28;20115;-64
2022/07/01 01:17:48;;;;;;;0.50;0.50;;;;;;;;;;5050417;28;20091;-63
2022/07/01 01:20:18;;;;;;;1.42;0.70;;;;;;;;;;5049264;28;20045;-63
2022/07/01 01:22:44;;;;;;;0.75;0.52;;;;;;;;;;5049913;28;20049;-64
2022/07/01 01:25:11;;;;;;;2.03;0.52;;;;;;;;;;5049947;28;20044;-60
2022/07/01 01:27:37;;;;;;;1.35;0.95;;;;;;;;;;5049340;28;20601;-64
2022/07/01 01:30:05;;;;;;;2.35;0.70;;;;;;;;;;5050370;28;20056;-63
2022/07/01 01:32:31;;;;;;;1.70;0.60;;;;;;;;;;5049461;28;20053;-63
2022/07/01 01:34:57;;;;;;;0.60;0.60;;;;;;;;;;5033300;28;20394;-64
2022/07/01 01:37:23;;;;;;;0.70;0.60;;;;;;;;;;5028785;28;20045;-64
2022/07/01 01:39:49;;;;;;;0.50;0.50;;;;;;;;;;5030540;28;20475;-63
2022/07/01 01:42:15;;;;;;;1.45;0.45;;;;;;;;;;5029839;28;20132;-63
2022/07/01 01:44:41;;;;;;;1.08;0.50;;;;;;;;;;5030369;28;20049;-64
2022/07/01 01:47:07;;;;;;;0.45;0.40;;;;;;;;;;5029860;28;20045;-63
2022/07/01 01:49:34;;;;;;;1.05;0.50;;;;;;;;;;5029796;28;20064;-63
2022/07/01 01:52:00;;;;;;;1.65;0.50;;;;;;;;;;5039497;28;20056;-64
2022/07/01 01:54:26;;;;;;;5.50;0.65;;;;;;;;;;5049743;28;20056;-64
2022/07/01 01:56:52;;;;;;;1.13;0.93;;;;;;;;;;5049968;28;20103;-64
2022/07/01 01:59:19;;;;;;;0.43;0.43;;;;;;;;;;5049455;28;20102;-63
2022/07/01 02:01:45;;;;;;;0.43;0.43;;;;;;;;;;5035950;28;20053;-63
2022/07/01 02:04:11;;;;;;;1.65;0.57;;;;;;;;;;5030233;28;20474;-63
2022/07/01 02:06:40;;;;;;;0.38;0.32;;;;;;;;;;5027667;28;20132;-64
2022/07/01 02:09:06;;;;;;;0.85;0.60;;;;;;;;;;5030205;28;20049;-63
2022/07/01 02:11:32;;;;;;;0.75;0.50;;;;;;;;;;5029253;28;20495;-63
2022/07/01 02:13:59;;;;;;;0.80;0.40;;;;;;;;;;5030056;28;20103;-63
2022/07/01 02:16:25;;;;;;;0.40;0.40;;;;;;;;;;5029249;28;20045;-63
2022/07/01 02:18:51;;;;;;;0.50;0.50;;;;;;;;;;5028918;28;20394;-63
2022/07/01 02:21:17;;;;;;;0.45;0.45;;;;;;;;;;5027487;28;20771;-63
2022/07/01 02:23:43;;;;;;;0.47;0.47;;;;;;;;;;5031095;28;20464;-63
2022/07/01 02:26:09;;;;;;;0.57;0.57;;;;;;;;;;5047165;28;20519;-63
2022/07/01 02:28:35;;;;;;;1.25;0.88;;;;;;;;;;5053245;28;20116;-62
2022/07/01 02:31:02;;;;;;;1.27;0.40;;;;;;;;;;5053443;28;20056;-63
2022/07/01 02:33:29;;;;;;;0.60;0.60;;;;;;;;;;5053080;28;20228;-63
2022/07/01 02:35:55;;;;;;;1.25;0.80;;;;;;;;;;5051279;28;20061;-64
2022/07/01 02:38:21;;;;;;;1.02;0.90;;;;;;;;;;5053214;28;20142;-64
2022/07/01 02:40:47;;;;;;;1.20;0.70;;;;;;;;;;5047165;28;20049;-63
2022/07/01 02:43:13;;;;;;;0.60;0.55;;;;;;;;;;5046231;28;20041;-63
2022/07/01 02:45:41;;;;;;;1.75;0.52;;;;;;;;;;5052616;28;20079;-63
2022/07/01 02:48:07;;;;;;;0.98;0.82;;;;;;;;;;5053301;28;20509;-64
2022/07/01 02:50:33;;;;;;;1.27;0.77;;;;;;;;;;5056648;28;20119;-62
2022/07/01 02:52:59;;;;;;;1.23;0.90;;;;;;;;;;5033348;28;20128;-64
2022/07/01 02:55:25;;;;;;;1.27;0.73;;;;;;;;;;5039241;28;20049;-63
2022/07/01 02:57:51;;;;;;;0.60;0.60;;;;;;;;;;5053073;28;20490;-63
2022/07/01 03:00:18;;;;;;;1.85;0.90;;;;;;;;;;5052274;28;20502;-63
2022/07/01 03:02:45;;;;;;;0.85;0.80;;;;;;;;;;5052673;28;20087;-63
2022/07/01 03:05:11;;;;;;;0.98;0.60;;;;;;;;;;5050919;28;20441;-63
2022/07/01 03:07:37;;;;;;;1.33;0.73;;;;;;;;;;5032020;28;20087;-63
2022/07/01 03:10:04;;;;;;;0.85;0.85;;;;;;;;;;5021015;28;20126;-63
2022/07/01 03:12:34;;;;;;;0.98;0.75;;;;;;;;;;5052478;28;20048;-63
2022/07/01 03:15:09;;;;;;;1.02;0.60;;;;;;;;;;5052963;28;20103;-64
2022/07/01 03:17:36;;;;;;;0.80;0.80;;;;;;;;;;5052139;28;20044;-63
2022/07/01 03:20:03;;;;;;;0.80;0.60;;;;;;;;;;5051689;28;20533;-63
2022/07/01 03:22:29;;;;;;;1.10;0.70;;;;;;;;;;5051538;28;20052;-64
2022/07/01 03:24:56;;;;;;;1.60;0.82;;;;;;;;;;5052746;28;20056;-63
2022/07/01 03:27:23;;;;;;;0.85;0.82;;;;;;;;;;5051090;28;20413;-61
2022/07/01 03:29:49;;;;;;;0.80;0.80;;;;;;;;;;5052189;28;20783;-63
2022/07/01 03:32:16;;;;;;;0.68;0.68;;;;;;;;;;5052210;28;20394;-63
2022/07/01 03:34:43;;;;;;;0.70;0.68;;;;;;;;;;5051121;28;20081;-62
2022/07/01 03:37:09;;;;;;;0.60;0.60;;;;;;;;;;5050154;28;20102;-63
2022/07/01 03:39:36;;;;;;;0.40;0.40;;;;;;;;;;5051850;28;20044;-63
2022/07/01 03:42:02;;;;;;;0.60;0.60;;;;;;;;;;5052376;28;20098;-63
2022/07/01 03:44:29;;;;;;;1.17;0.70;;;;;;;;;;5052022;28;20049;-63
2022/07/01 03:46:55;;;;;;;0.73;0.57;;;;;;;;;;5051800;28;20048;-63
2022/07/01 03:49:21;;;;;;;1.58;0.73;;;;;;;;;;5048387;28;20053;-63
2022/07/01 03:51:47;;;;;;;1.75;1.02;;;;;;;;;;5050295;28;20056;-63
2022/07/01 03:57:02;;;;;;;0.70;0.60;;;;;;;;;;5052011;28;20175;-63
2022/07/01 03:59:28;;;;;;;1.10;0.70;;;;;;;;;;5051628;28;20092;-63
2022/07/01 04:01:55;;;;;;;1.77;0.90;;;;;;;;;;5051503;28;20052;-63
2022/07/01 04:04:21;;;;;;;0.50;0.50;;;;;;;;;;5051892;28;20469;-63
2022/07/01 04:06:47;;;;;;;2.55;0.70;;;;;;;;;;5048439;28;20077;-63
2022/07/01 04:09:15;;;;;;;0.70;0.70;;;;;;;;;;5052007;28;20182;-63
2022/07/01 04:11:42;;;;;;;1.10;1.00;;;;;;;;;;5036957;28;20402;-63
2022/07/01 04:14:09;;;;;;;2.10;0.85;;;;;;;;;;5032071;28;20053;-62
2022/07/01 04:16:35;;;;;;;1.05;0.80;;;;;;;;;;5030875;28;20106;-63
2022/07/01 04:19:01;;;;;;;0.70;0.70;;;;;;;;;;5031579;28;20490;-63
2022/07/01 04:24:13;;;;;;;1.83;0.90;;;;;;;;;;5031793;28;20064;-63
2022/07/01 04:26:40;;;;;;;0.80;0.70;;;;;;;;;;5035976;28;20041;-60
2022/07/01 04:29:07;;;;;;;0.73;0.70;;;;;;;;;;5039094;28;20049;-63
2022/07/01 04:31:33;;;;;;;1.00;0.80;;;;;;;;;;5030564;28;20056;-63
2022/07/01 04:34:00;;;;;;;1.20;1.00;;;;;;;;;;5031608;28;20060;-63
2022/07/01 04:36:26;;;;;;;2.97;0.80;;;;;;;;;;5029070;28;20426;-60
2022/07/01 04:38:52;;;;;;;1.08;0.90;;;;;;;;;;5042428;28;20052;-64
2022/07/01 04:44:03;;;;;;;0.98;0.82;;;;;;;;;;5051370;28;20084;-63
2022/07/01 04:46:29;;;;;;;1.08;0.88;;;;;;;;;;5050009;28;20044;-63
2022/07/01 04:48:55;;;;;;;1.33;0.93;;;;;;;;;;5051182;28;20402;-63
2022/07/01 04:51:22;;;;;;;1.17;0.65;;;;;;;;;;5049415;28;20070;-63
2022/07/01 04:53:48;;;;;;;1.80;1.02;;;;;;;;;;5031605;28;20616;-62
2022/07/01 04:56:14;;;;;;;1.63;1.02;;;;;;;;;;5030971;28;20037;-63
2022/07/01 04:58:40;;;;;;;1.00;0.80;;;;;;;;;;5030546;28;20103;-63
2022/07/01 05:01:06;;;;;;;1.25;0.82;;;;;;;;;;5046787;28;20052;-63
2022/07/01 05:03:33;;;;;;;1.23;1.00;;;;;;;;;;5063741;28;20053;-62
2022/07/01 05:06:02;;;;;;;1.90;0.93;;;;;;;;;;5038356;28;20465;-63
2022/07/01 05:08:28;;;;;;;1.00;0.90;;;;;;;;;;5044584;28;20072;-60
2022/07/01 05:10:54;;;;;;;1.27;1.00;;;;;;;;;;5050667;28;20477;-63
2022/07/01 05:13:20;;;;;;;1.20;0.95;;;;;;;;;;5050693;28;20049;-63
2022/07/01 05:15:46;;;;;;;1.58;1.13;;;;;;;;;;5049905;28;20516;-64
2022/07/01 05:23:42;;;;;;;1.48;0.80;;;;;;;;;;5037514;28;20089;-63
2022/07/01 05:26:08;;;;;;;0.95;0.70;;;;;;;;;;5030329;28;20489;-63
2022/07/01 05:28:34;;;;;;;0.85;0.70;;;;;;;;;;5030065;28;20125;-63
2022/07/01 05:31:00;;;;;;;1.92;1.00;;;;;;;;;;5030210;28;20090;-63
2022/07/01 05:33:26;;;;;;;1.52;0.80;;;;;;;;;;5037269;28;20071;-63
2022/07/01 05:35:53;;;;;;;1.42;1.00;;;;;;;;;;5046266;28;20068;-63
2022/07/01 05:38:19;;;;;;;2.17;1.00;;;;;;;;;;5050357;28;20119;-63
2022/07/01 05:40:45;;;;;;;1.80;1.15;;;;;;;;;;5047951;28;20057;-63
2022/07/01 05:43:11;;;;;;;1.60;1.10;;;;;;;;;;5050293;28;20049;-63
2022/07/01 05:45:37;;;;;;;1.13;0.95;;;;;;;;;;5048568;28;20045;-63
2022/07/01 05:48:04;;;;;;;2.20;1.17;;;;;;;;;;5036882;28;20175;-63
2022/07/01 05:50:30;;;;;;;1.92;1.00;;;;;;;;;;5028952;28;20049;-62
2022/07/01 05:52:56;;;;;;;1.58;0.95;;;;;;;;;;5040085;28;20110;-63
2022/07/01 05:55:22;;;;;;;1.95;1.40;;;;;;;;;;5050050;28;20041;-62
2022/07/01 05:57:48;;;;;;;1.00;0.90;;;;;;;;;;5049313;28;20049;-63
2022/07/01 06:00:14;;;;;;;1.75;1.20;;;;;;;;;;5029717;28;20041;-63
2022/07/01 06:02:40;;;;;;;2.25;1.15;;;;;;;;;;5029075;28;20517;-63
2022/07/01 06:05:06;;;;;;;1.45;1.10;;;;;;;;;;5029080;28;20730;-63
2022/07/01 06:07:32;;;;;;;1.60;1.10;;;;;;;;;;5029124;28;20056;-60
2022/07/01 06:09:58;;;;;;;1.40;1.10;;;;;;;;;;5029892;28;20091;-63
2022/07/01 06:12:25;;;;;;;1.90;1.00;;;;;;;;;;5030037;28;20049;-63
2022/07/01 06:14:51;;;;;;;1.50;1.15;;;;;;;;;;5029459;28;20441;-63
2022/07/01 06:17:17;;;;;;;2.58;1.10;;;;;;;;;;5034699;28;20037;-63
2022/07/01 06:19:43;;;;;;;1.45;1.10;;;;;;;;;;5049377;28;20084;-62
2022/07/01 06:22:09;;;;;;;3.05;1.20;;;;;;;;;;5048225;28;20106;-63
2022/07/01 06:24:35;;;;;;;3.08;1.10;;;;;;;;;;5030776;28;20085;-60
2022/07/01 06:27:03;;;;;;;2.30;1.30;;;;;;;;;;5037619;28;20098;-63
2022/07/01 06:29:30;;;;;;;1.88;1.13;;;;;;;;;;5049920;28;20045;-63
2022/07/01 06:31:56;;;;;;;1.63;1.00;;;;;;;;;;5030414;28;20489;-63
2022/07/01 06:34:22;;;;;;;2.70;1.50;;;;;;;;;;5049651;28;20098;-63
2022/07/01 06:36:49;;;;;;;1.90;1.27;;;;;;;;;;5047217;28;20103;-63
2022/07/01 06:39:15;;;;;;;2.03;1.40;;;;;;;;;;5049734;28;20049;-63
2022/07/01 06:41:41;;;;;;;2.28;1.27;;;;;;;;;;5049191;28;20055;-63
2022/07/01 06:44:07;;;;;;;3.33;1.20;;;;;;;;;;5045179;28;20045;-63
2022/07/01 06:46:33;;;;;;;1.33;1.10;;;;;;;;;;5035529;28;20049;-63
2022/07/01 06:48:59;;;;;;;1.88;1.15;;;;;;;;;;5033856;28;20041;-63
2022/07/01 06:51:27;;;;;;;1.58;1.13;;;;;;;;;;5035407;28;20060;-63
2022/07/01 06:53:53;;;;;;;2.45;1.48;;;;;;;;;;5029182;28;20050;-63
2022/07/01 06:56:20;;;;;;;2.03;1.40;;;;;;;;;;5029567;28;20092;-63
2022/07/01 06:58:46;;;;;;;1.38;1.05;;;;;;;;;;5029088;28;20058;-63
2022/07/01 07:01:12;;;;;;;1.42;1.27;;;;;;;;;;5029248;28;20046;-64
2022/07/01 07:03:38;;;;;;;1.55;1.40;;;;;;;;;;5029190;28;20052;-61
2022/07/01 07:06:05;;;;;;;1.30;1.10;;;;;;;;;;5027604;28;20038;-65
2022/07/01 07:08:31;;;;;;;2.25;1.38;;;;;;;;;;5029697;28;20128;-64
2022/07/01 07:10:58;;;;;;;1.65;1.05;;;;;;;;;;5032634;28;20123;-64
2022/07/01 07:13:24;;;;;;;2.03;1.40;;;;;;;;;;5043753;28;20050;-64
2022/07/01 07:15:50;;;;;;;1.13;1.02;;;;;;;;;;5045178;28;20060;-65
2022/07/01 07:18:17;;;;;;;2.35;1.40;;;;;;;;;;5032891;28;20567;-64
2022/07/01 07:20:43;;;;;;;2.30;1.45;;;;;;;;;;5030609;28;20053;-64
2022/07/01 07:23:09;;;;;;;2.40;1.45;;;;;;;;;;5032988;28;20395;-64
2022/07/01 07:25:35;;;;;;;3.17;1.50;;;;;;;;;;5032670;28;20043;-64
2022/07/01 07:28:01;;;;;;;3.22;1.55;;;;;;;;;;5032369;28;20227;-64
2022/07/01 07:30:27;;;;;;;2.33;1.63;;;;;;;;;;5041480;28;20132;-63
2022/07/01 07:32:53;;;;;;;2.00;1.30;;;;;;;;;;5051917;28;20126;-64
2022/07/01 07:35:19;;;;;;;1.95;1.33;;;;;;;;;;5039730;28;20064;-64
2022/07/01 07:37:46;;;;;;;3.35;1.73;;;;;;;;;;5038681;28;20068;-64
2022/07/01 07:40:17;;;;;;;2.60;1.50;;;;;;;;;;5033658;28;20522;-65
2022/07/01 07:42:44;;;;;;;2.25;1.42;;;;;;;;;;5032923;28;20402;-64
2022/07/01 07:45:11;;;;;;;1.38;1.20;;;;;;;;;;5037800;28;20122;-64
2022/07/01 07:47:37;;;;;;;2.42;1.50;;;;;;;;;;5037119;28;20132;-65
2022/07/01 07:50:04;;;;;;;4.43;1.60;;;;;;;;;;5032047;28;20045;-64
2022/07/01 07:52:30;;;;;;;1.95;1.42;;;;;;;;;;5031938;28;20075;-65
2022/07/01 07:54:56;;;;;;;2.72;1.73;;;;;;;;;;5033319;28;20478;-64
2022/07/01 07:57:22;;;;;;;3.08;1.73;;;;;;;;;;5032223;28;20045;-65
2022/07/01 07:59:48;;;;;;;2.65;1.52;;;;;;;;;;5032180;28;20457;-63
2022/07/01 08:02:15;;;;;;;2.72;1.80;;;;;;;;;;5030168;28;20405;-64
2022/07/01 08:04:41;;;;;;;2.75;1.73;;;;;;;;;;5030562;28;20051;-64
2022/07/01 08:07:07;;;;;;;2.70;1.77;;;;;;;;;;5030686;28;20041;-65
2022/07/01 08:09:34;;;;;;;2.35;1.50;;;;;;;;;;5033517;28;20402;-64
2022/07/01 08:12:03;;;;;;;5.22;1.88;;;;;;;;;;5044197;28;20468;-64
2022/07/01 08:14:30;;;;;;;2.90;1.73;;;;;;;;;;5043718;28;20556;-64
2022/07/01 08:16:56;;;;;;;2.20;1.48;;;;;;;;;;5042878;28;20069;-64
2022/07/01 08:19:22;;;;;;;3.92;2.03;;;;;;;;;;5044958;28;20053;-64
2022/07/01 08:21:48;;;;;;;3.25;1.77;;;;;;;;;;5047134;28;20056;-64
2022/07/01 08:24:14;;;;;;;4.25;2.08;;;;;;;;;;5043856;28;20038;-64
2022/07/01 08:26:40;;;;;;;4.78;1.77;;;;;;;;;;5042017;28;20397;-63
2022/07/01 08:29:06;;;;;;;2.90;1.60;;;;;;;;;;5047949;28;20642;-65
2022/07/01 08:31:32;;;;;;;2.30;1.60;;;;;;;;;;5048747;28;20084;-64
2022/07/01 08:33:58;;;;;;;3.38;1.88;;;;;;;;;;5046772;28;20047;-64
2022/07/01 08:36:24;;;;;;;2.60;1.80;;;;;;;;;;5033074;28;20115;-65
2022/07/01 08:38:51;;;;;;;3.65;1.90;;;;;;;;;;5011797;28;20045;-63
2022/07/01 08:41:18;;;;;;;3.33;1.80;;;;;;;;;;5014894;28;20494;-65
2022/07/01 08:43:45;;;;;;;3.55;1.98;;;;;;;;;;5035109;28;20053;-63
2022/07/01 08:46:11;;;;;;;3.08;1.73;;;;;;;;;;5032698;28;20497;-64
2022/07/01 08:48:37;;;;;;;4.32;1.95;;;;;;;;;;5042302;28;20045;-64
2022/07/01 08:51:04;;;;;;;3.33;1.83;;;;;;;;;;5048125;28;20509;-63
2022/07/01 08:53:31;;;;;;;2.55;1.70;;;;;;;;;;5044718;28;20055;-65
2022/07/01 08:58:42;;;;;;;2.97;1.80;;;;;;;;;;5048432;28;20589;-64
2022/07/01 09:01:21;;;;;;;2.80;1.70;;;;;;;;;;5014980;28;20545;-64
2022/07/01 09:03:48;;;;;;;3.83;2.17;;;;;;;;;;5031684;28;20661;-61
2022/07/01 09:06:19;;;;;;;8.00;1.92;;;;;;;;;;5029096;28;20461;-64
2022/07/01 09:08:46;;;;;;;4.38;2.33;;;;;;;;;;5051200;28;20045;-64
2022/07/01 09:11:22;;;;;;;3.53;1.95;;;;;;;;;;5037326;28;20549;-66
2022/07/01 09:13:48;;;;;;;;;;;;;;;;;;5040867;28;20040;-61
2022/07/01 09:16:16;;;;;;;3.50;1.83;;;;;;;;;;5048281;28;20391;-64
2022/07/01 09:19:01;;;;;;;7.55;3.15;;;;;;;;;;5052781;28;20053;-64
2022/07/01 09:21:31;;;;;;;7.50;3.00;;;;;;;;;;5068578;28;20127;-65
2022/07/01 09:24:04;;;;;;;5.20;2.63;;;;;;;;;;5070038;28;20504;-65
2022/07/01 09:26:30;;;;;;;5.32;2.90;;;;;;;;;;5059382;28;20051;-65
2022/07/01 09:28:57;;;;;;;6.93;2.53;;;;;;;;;;5063872;28;20052;-65
2022/07/01 09:31:37;;;;;;;16.58;3.17;;;;;;;;;;5046875;28;20040;-65
2022/07/01 09:34:04;;;;;;;6.80;2.22;;;;;;;;;;5049552;28;20052;-65
2022/07/01 09:36:30;;;;;;;4.03;2.22;;;;;;;;;;5056950;28;20064;-64
2022/07/01 09:38:56;;;;;;;5.55;2.35;;;;;;;;;;5037900;28;20051;-65
2022/07/01 09:41:25;;;;;;;4.90;2.60;;;;;;;;;;5070713;28;20054;-65
2022/07/01 09:43:51;;;;;;;4.90;2.33;;;;;;;;;;5043568;28;20502;-61
2022/07/01 09:46:17;;;;;;;5.35;2.53;;;;;;;;;;5057000;28;20041;-65
2022/07/01 09:48:44;;;;;;;7.70;2.00;;;;;;;;;;5057207;28;20052;-65
2022/07/01 09:51:12;;;;;;;6.05;2.20;;;;;;;;;;5035686;28;20060;-64
2022/07/01 09:53:38;;;;;;;4.90;2.45;;;;;;;;;;5055706;28;20060;-65
2022/07/01 09:56:04;;;;;;;3.38;1.90;;;;;;;;;;5069940;28;20474;-65
2022/07/01 09:58:32;;;;;;;3.53;2.00;;;;;;;;;;5056119;28;20083;-65
2022/07/01 10:00:58;;;;;;;4.95;2.15;;;;;;;;;;5069182;28;20052;-65
2022/07/01 10:03:26;;;;;;;3.38;1.88;;;;;;;;;;5069884;28;20444;-65
2022/07/01 10:05:57;;;;;;;4.30;2.20;;;;;;;;;;5061269;28;20092;-61
2022/07/01 10:08:44;;;;;;;5.03;2.05;;;;;;;;;;5044775;28;20049;-64
2022/07/01 10:11:22;;;;;;;2.88;1.95;;;;;;;;;;5052063;28;20478;-65
2022/07/01 10:13:48;;;;;;;4.25;1.83;;;;;;;;;;5039714;28;20117;-65
2022/07/01 10:16:14;;;;;;;3.80;2.17;;;;;;;;;;5062982;28;20155;-65
2022/07/01 10:18:41;;;;;;;6.13;1.90;;;;;;;;;;5070013;28;20127;-66
2022/07/01 10:21:07;;;;;;;4.78;1.83;;;;;;;;;;5067775;28;20044;-64
2022/07/01 10:23:40;;;;;;;2.83;1.67;;;;;;;;;;5070471;28;20044;-64
2022/07/01 10:26:13;;;;;;;7.68;2.60;;;;;;;;;;5042701;28;20078;-65
2022/07/01 10:28:43;;;;;;;4.78;2.15;;;;;;;;;;5066462;28;20048;-64
2022/07/01 10:31:16;;;;;;;3.28;1.92;;;;;;;;;;5035501;28;20524;-65
2022/07/01 10:33:42;;;;;;;6.05;2.13;;;;;;;;;;5049523;28;20059;-65
2022/07/01 10:36:13;;;;;;;3.10;2.00;;;;;;;;;;5051869;28;20048;-61
2022/07/01 10:39:13;;;;;;;2.70;1.67;;;;;;;;;;5070171;28;20053;-65
2022/07/01 10:41:42;;;;;;;6.05;2.13;;;;;;;;;;5054771;28;20067;-64
2022/07/01 10:44:10;;;;;;;3.95;2.20;;;;;;;;;;5054190;28;20049;-65
2022/07/01 10:46:43;;;;;;;5.07;1.88;;;;;;;;;;5060441;28;20102;-64
2022/07/01 10:49:11;;;;;;;4.72;2.17;;;;;;;;;;5053459;28;20041;-64
2022/07/01 10:51:47;;;;;;;3.63;2.00;;;;;;;;;;5054075;28;20422;-65
2022/07/01 10:54:13;;;;;;;6.65;2.20;;;;;;;;;;5063177;28;20124;-64
2022/07/01 10:56:40;;;;;;;3.92;1.80;;;;;;;;;;5055416;28;20037;-65
2022/07/01 10:59:06;;;;;;;5.88;2.30;;;;;;;;;;5072781;28;20044;-65
2022/07/01 11:01:32;;;;;;;3.13;1.90;;;;;;;;;;5072947;28;20064;-64
2022/07/01 11:03:58;;;;;;;5.72;2.28;;;;;;;;;;5073105;28;20123;-60
2022/07/01 11:06:25;;;;;;;3.03;1.90;;;;;;;;;;5053229;28;20845;-65
2022/07/01 11:08:51;;;;;;;4.82;1.67;;;;;;;;;;5073229;28;20120;-65
2022/07/01 11:11:19;;;;;;;2.80;1.70;;;;;;;;;;5044383;28;20064;-64
2022/07/01 11:13:45;;;;;;;8.55;2.00;;;;;;;;;;5052829;28;20140;-65
2022/07/01 11:16:11;;;;;;;3.10;1.75;;;;;;;;;;5052509;28;20048;-65
2022/07/01 11:18:38;;;;;;;3.15;1.83;;;;;;;;;;5053032;28;20451;-65
2022/07/01 11:21:08;;;;;;;3.80;2.00;;;;;;;;;;5057945;28;20486;-62
2022/07/01 11:23:34;;;;;;;5.35;2.20;;;;;;;;;;5055834;28;20048;-61
2022/07/01 11:26:01;;;;;;;4.00;1.80;;;;;;;;;;5048710;28;20482;-59
2022/07/01 11:28:27;;;;;;;3.92;2.40;;;;;;;;;;5048621;28;20041;-60
2022/07/01 11:31:00;;;;;;;3.15;1.70;;;;;;;;;;5044914;28;20100;-63
2022/07/01 11:33:26;;;;;;;4.45;2.13;;;;;;;;;;5042876;28;20145;-66
2022/07/01 11:41:27;;;;;;;3.92;1.98;;;;;;;;;;5063240;28;20068;-64
2022/07/01 11:43:53;;;;;;;4.28;1.92;;;;;;;;;;5063435;28;20053;-64
2022/07/01 11:46:20;;;;;;;3.08;1.70;;;;;;;;;;5063057;28;20122;-64
2022/07/01 11:48:50;;;;;;;5.57;2.30;;;;;;;;;;5046421;28;20088;-61
2022/07/01 11:51:17;;;;;;;12.82;2.65;;;;;;;;;;5045365;28;20071;-61
2022/07/01 11:53:45;;;;;;;15.13;2.47;;;;;;;;;;5046629;28;20053;-64
2022/07/01 11:56:11;;;;;;;6.57;2.28;;;;;;;;;;5044560;28;20051;-64
2022/07/01 11:58:44;;;;;;;12.38;2.13;;;;;;;;;;5043326;28;20791;-64
2022/07/01 12:01:10;;;;;;;10.20;2.15;;;;;;;;;;5051173;28;20490;-64
2022/07/01 12:03:37;;;;;;;7.22;2.08;;;;;;;;;;5061969;28;20490;-64
2022/07/01 12:06:04;;;;;;;4.53;2.20;;;;;;;;;;5030542;28;20111;-60
2022/07/01 12:08:30;;;;;;;4.05;2.03;;;;;;;;;;5037301;28;20049;-63
2022/07/01 12:10:59;;;;;;;5.10;1.70;;;;;;;;;;5070326;28;20448;-64
2022/07/01 12:13:26;;;;;;;9.10;1.80;;;;;;;;;;5067625;28;20040;-64
2022/07/01 12:15:52;;;;;;;3.63;1.80;;;;;;;;;;5050438;28;20041;-64
2022/07/01 12:18:18;;;;;;;2.90;1.60;;;;;;;;;;5044120;28;20041;-64
2022/07/01 12:20:54;;;;;;;6.72;1.63;;;;;;;;;;5056499;28;20819;-64
2022/07/01 12:23:20;;;;;;;6.15;1.63;;;;;;;;;;5064978;28;20490;-64
2022/07/01 12:25:54;;;;;;;7.78;2.00;;;;;;;;;;5051924;28;20459;-64
2022/07/01 12:28:33;;;;;;;3.00;1.40;;;;;;;;;;5045920;28;20533;-64
2022/07/01 12:31:03;;;;;;;6.18;1.77;;;;;;;;;;5058105;28;20045;-64
2022/07/01 12:33:29;;;;;;;3.10;1.95;;;;;;;;;;5048864;28;20456;-64
2022/07/01 12:35:56;;;;;;;3.72;1.50;;;;;;;;;;5054904;28;20110;-64
2022/07/01 12:38:22;;;;;;;3.03;1.30;;;;;;;;;;5061581;28;20102;-64
2022/07/01 12:40:48;;;;;;;4.00;1.42;;;;;;;;;;5047097;28;20142;-63
2022/07/01 12:43:29;;;;;;;4.93;1.65;;;;;;;;;;5043530;28;20040;-62
2022/07/01 12:45:55;;;;;;;5.28;1.20;;;;;;;;;;5040416;28;20045;-63
2022/07/01 12:48:21;;;;;;;5.07;1.63;;;;;;;;;;5046989;28;20171;-63
2022/07/01 12:50:50;;;;;;;7.72;1.55;;;;;;;;;;5033713;28;20058;-67
2022/07/01 12:53:20;;;;;;;11.05;2.13;;;;;;;;;;5052593;28;20083;-65
2022/07/01 12:55:48;;;;;;;15.68;2.47;;;;;;;;;;5039838;28;20098;-64
2022/07/01 12:58:18;;;;;;;4.20;1.35;;;;;;;;;;5056760;28;20397;-63
2022/07/01 13:00:46;;;;;;;1.45;1.23;;;;;;;;;;5054504;28;20052;-64
2022/07/01 13:03:13;;;;;;;6.30;1.40;;;;;;;;;;5056265;28;20060;-63
2022/07/01 13:05:40;;;;;;;1.67;1.48;;;;;;;;;;5064231;28;20464;-63
2022/07/01 13:08:07;;;;;;;3.67;1.80;;;;;;;;;;5044783;28;20059;-64
2022/07/01 13:10:33;;;;;;;5.43;1.48;;;;;;;;;;5055287;28;20123;-64
2022/07/01 13:12:59;;;;;;;1.73;1.00;;;;;;;;;;5070942;28;20102;-64
2022/07/01 13:15:25;;;;;;;5.93;1.95;;;;;;;;;;5062973;28;20075;-64
2022/07/01 13:17:51;;;;;;;8.90;1.88;;;;;;;;;;5032938;28;20049;-64
2022/07/01 13:20:18;;;;;;;5.00;1.20;;;;;;;;;;5043068;28;20462;-64
2022/07/01 13:22:44;;;;;;;2.67;1.17;;;;;;;;;;5070375;28;20080;-64
2022/07/01 13:25:11;;;;;;;3.13;1.38;;;;;;;;;;5057956;28;20044;-61
2022/07/01 13:27:38;;;;;;;5.15;1.50;;;;;;;;;;5054990;28;20412;-64
2022/07/01 13:30:05;;;;;;;3.92;1.23;;;;;;;;;;5070743;28;20052;-64
2022/07/01 13:32:31;;;;;;;4.90;1.20;;;;;;;;;;5035961;28;20041;-64
2022/07/01 13:34:57;;;;;;;2.08;1.50;;;;;;;;;;5049936;28;20448;-63
2022/07/01 13:37:23;;;;;;;4.22;1.30;;;;;;;;;;5050011;28;20067;-64
2022/07/01 13:39:50;;;;;;;2.47;1.70;;;;;;;;;;5070788;28;20097;-64
2022/07/01 13:42:17;;;;;;;5.60;1.13;;;;;;;;;;5070016;28;20056;-64
2022/07/01 13:44:43;;;;;;;2.53;1.25;;;;;;;;;;5052832;28;20055;-63
2022/07/01 13:47:09;;;;;;;4.28;1.20;;;;;;;;;;5044711;28;20045;-64
2022/07/01 13:49:36;;;;;;;1.60;1.00;;;;;;;;;;5063669;28;20413;-64
2022/07/01 13:52:02;;;;;;;1.92;1.27;;;;;;;;;;5068788;28;20084;-64
2022/07/01 13:54:28;;;;;;;2.03;0.90;;;;;;;;;;5051645;28;20048;-64
2022/07/01 13:56:54;;;;;;;1.50;1.20;;;;;;;;;;5050447;28;20080;-63
2022/07/01 13:59:20;;;;;;;2.35;1.30;;;;;;;;;;5050137;28;20080;-63
2022/07/01 14:01:46;;;;;;;3.10;1.45;;;;;;;;;;5050206;28;20071;-64
2022/07/01 14:04:12;;;;;;;1.42;1.20;;;;;;;;;;5050670;28;20060;-61
2022/07/01 14:06:39;;;;;;;4.05;1.23;;;;;;;;;;5035724;28;20041;-64
2022/07/01 14:09:05;;;;;;;3.92;1.52;;;;;;;;;;5013140;28;20102;-63
2022/07/01 14:11:31;;;;;;;2.03;1.20;;;;;;;;;;5030215;28;20052;-63
2022/07/01 14:13:57;;;;;;;4.07;1.40;;;;;;;;;;5029751;28;20045;-63
2022/07/01 14:16:23;;;;;;;2.25;1.08;;;;;;;;;;5029759;28;20093;-64
2022/07/01 14:18:50;;;;;;;5.05;1.02;;;;;;;;;;5030518;28;20041;-63
2022/07/01 14:21:18;;;;;;;2.25;1.00;;;;;;;;;;5036978;28;20060;-60
2022/07/01 14:23:44;;;;;;;1.88;0.98;;;;;;;;;;5047896;28;20605;-62
2022/07/01 14:26:10;;;;;;;1.10;1.00;;;;;;;;;;5052086;28;20578;-63
2022/07/01 14:28:36;;;;;;;0.85;0.85;;;;;;;;;;5051765;28;20124;-62
2022/07/01 14:31:02;;;;;;;1.50;0.75;;;;;;;;;;5053199;28;20080;-63
2022/07/01 14:33:28;;;;;;;2.80;1.00;;;;;;;;;;5052355;28;20045;-63
2022/07/01 14:35:54;;;;;;;2.08;0.93;;;;;;;;;;5050642;28;20053;-63
2022/07/01 14:38:20;;;;;;;3.78;0.88;;;;;;;;;;5050379;28;20573;-63
2022/07/01 14:40:47;;;;;;;2.45;1.10;;;;;;;;;;5047241;28;20387;-63
2022/07/01 14:43:13;;;;;;;1.95;1.05;;;;;;;;;;5044396;28;20499;-63
2022/07/01 14:45:39;;;;;;;2.20;0.80;;;;;;;;;;5052874;28;20052;-63
2022/07/01 14:48:05;;;;;;;2.63;0.90;;;;;;;;;;5053144;28;20084;-63
2022/07/01 14:50:33;;;;;;;1.15;0.80;;;;;;;;;;5051652;28;20065;-64
2022/07/01 14:52:59;;;;;;;1.42;1.10;;;;;;;;;;5052888;28;20882;-62
2022/07/01 14:55:25;;;;;;;0.73;0.73;;;;;;;;;;5053022;28;20044;-63
2022/07/01 14:57:51;;;;;;;1.00;0.82;;;;;;;;;;5050734;28;20057;-63
2022/07/01 15:00:17;;;;;;;2.75;1.08;;;;;;;;;;5052434;28;20390;-62
2022/07/01 15:02:43;;;;;;;1.20;0.70;;;;;;;;;;5052104;28;20041;-63
2022/07/01 15:05:10;;;;;;;0.88;0.68;;;;;;;;;;5051926;28;20107;-63